Terminal Aerodrome Forecast
Issued by NWS

Home | Current Version | Previous Version | Text Only | Print | Product List | Glossary On
Versions: 1 2 3 4 5 6 7 8 9 10 11 12 13 14
000
FTUS45 KVEF 291720
TAFVGT
TAF
KVGT 291720Z 2918/3018 13006KT P6SM FEW090 SCT140
     FM300500 33006KT P6SM SCT150
     FM301000 VRB05KT P6SM SCT150
     FM301700 12007KT P6SM FEW150=

USA.gov is the U.S. government's official web portal to all federal, state and local government web resources and services.